sensor_id;sensor_type;location;lat;lon;timestamp;temperature;humidity
9482;DHT22;4779;48.062;11.672;2023-04-06T00:00:24;1.30;94.70
9482;DHT22;4779;48.062;11.672;2023-04-06T00:02:51;1.40;94.90
9482;DHT22;4779;48.062;11.672;2023-04-06T00:05:19;1.40;94.90
9482;DHT22;4779;48.062;11.672;2023-04-06T00:07:46;1.40;95.00
9482;DHT22;4779;48.062;11.672;2023-04-06T00:10:13;1.40;94.80
9482;DHT22;4779;48.062;11.672;2023-04-06T00:12:40;1.30;94.50
9482;DHT22;4779;48.062;11.672;2023-04-06T00:15:08;1.30;94.70
9482;DHT22;4779;48.062;11.672;2023-04-06T00:17:36;1.20;94.80
9482;DHT22;4779;48.062;11.672;2023-04-06T00:20:04;1.30;94.90
9482;DHT22;4779;48.062;11.672;2023-04-06T00:22:32;1.20;95.10
9482;DHT22;4779;48.062;11.672;2023-04-06T00:24:59;1.20;95.00
9482;DHT22;4779;48.062;11.672;2023-04-06T00:27:26;1.20;95.10
9482;DHT22;4779;48.062;11.672;2023-04-06T00:29:53;1.30;95.50
9482;DHT22;4779;48.062;11.672;2023-04-06T00:32:20;1.20;95.50
9482;DHT22;4779;48.062;11.672;2023-04-06T00:34:48;1.20;95.70
9482;DHT22;4779;48.062;11.672;2023-04-06T00:37:15;1.20;95.60
9482;DHT22;4779;48.062;11.672;2023-04-06T00:39:42;1.20;95.50
9482;DHT22;4779;48.062;11.672;2023-04-06T00:42:11;1.20;95.50
9482;DHT22;4779;48.062;11.672;2023-04-06T00:44:39;1.10;95.70
9482;DHT22;4779;48.062;11.672;2023-04-06T00:47:07;1.10;95.40
9482;DHT22;4779;48.062;11.672;2023-04-06T00:49:34;1.00;95.60
9482;DHT22;4779;48.062;11.672;2023-04-06T00:52:02;1.00;95.70
9482;DHT22;4779;48.062;11.672;2023-04-06T00:54:29;1.00;95.60
9482;DHT22;4779;48.062;11.672;2023-04-06T00:56:57;1.00;95.70
9482;DHT22;4779;48.062;11.672;2023-04-06T00:59:24;0.90;95.80
9482;DHT22;4779;48.062;11.672;2023-04-06T01:01:51;1.00;96.00
9482;DHT22;4779;48.062;11.672;2023-04-06T01:04:18;1.00;96.10
9482;DHT22;4779;48.062;11.672;2023-04-06T01:06:45;1.00;96.00
9482;DHT22;4779;48.062;11.672;2023-04-06T01:09:13;1.00;95.80
9482;DHT22;4779;48.062;11.672;2023-04-06T01:11:40;1.00;96.10
9482;DHT22;4779;48.062;11.672;2023-04-06T01:14:07;0.90;96.10
9482;DHT22;4779;48.062;11.672;2023-04-06T01:16:35;0.70;96.40
9482;DHT22;4779;48.062;11.672;2023-04-06T01:19:07;0.70;96.40
9482;DHT22;4779;48.062;11.672;2023-04-06T01:21:34;0.80;96.30
9482;DHT22;4779;48.062;11.672;2023-04-06T01:24:03;0.80;96.70
9482;DHT22;4779;48.062;11.672;2023-04-06T01:26:31;0.80;97.00
9482;DHT22;4779;48.062;11.672;2023-04-06T01:28:58;0.80;96.60
9482;DHT22;4779;48.062;11.672;2023-04-06T02:04:58;0.60;97.80
9482;DHT22;4779;48.062;11.672;2023-04-06T02:07:25;0.60;97.70
9482;DHT22;4779;48.062;11.672;2023-04-06T02:09:54;0.60;97.70
9482;DHT22;4779;48.062;11.672;2023-04-06T02:12:21;0.50;97.60
9482;DHT22;4779;48.062;11.672;2023-04-06T02:14:49;0.50;97.70
9482;DHT22;4779;48.062;11.672;2023-04-06T02:17:16;0.50;97.90
9482;DHT22;4779;48.062;11.672;2023-04-06T02:19:43;0.50;97.80
9482;DHT22;4779;48.062;11.672;2023-04-06T02:22:11;0.50;97.60
9482;DHT22;4779;48.062;11.672;2023-04-06T02:24:38;0.50;97.70
9482;DHT22;4779;48.062;11.672;2023-04-06T02:27:05;0.50;97.80
9482;DHT22;4779;48.062;11.672;2023-04-06T02:29:32;0.50;97.80
9482;DHT22;4779;48.062;11.672;2023-04-06T02:31:59;0.50;98.00
9482;DHT22;4779;48.062;11.672;2023-04-06T02:34:26;0.40;98.00
9482;DHT22;4779;48.062;11.672;2023-04-06T02:36:53;0.40;98.20
9482;DHT22;4779;48.062;11.672;2023-04-06T02:39:21;0.40;98.10
9482;DHT22;4779;48.062;11.672;2023-04-06T02:41:48;0.40;98.20
9482;DHT22;4779;48.062;11.672;2023-04-06T02:44:15;0.40;98.60
9482;DHT22;4779;48.062;11.672;2023-04-06T02:46:42;0.30;98.30
9482;DHT22;4779;48.062;11.672;2023-04-06T02:49:09;0.30;98.10
9482;DHT22;4779;48.062;11.672;2023-04-06T02:51:36;0.20;98.20
9482;DHT22;4779;48.062;11.672;2023-04-06T02:54:03;0.20;98.10
9482;DHT22;4779;48.062;11.672;2023-04-06T02:56:32;0.10;98.40
9482;DHT22;4779;48.062;11.672;2023-04-06T02:58:59;0.10;98.30
9482;DHT22;4779;48.062;11.672;2023-04-06T03:01:26;0.00;98.40
9482;DHT22;4779;48.062;11.672;2023-04-06T03:03:53;0.00;98.70
9482;DHT22;4779;48.062;11.672;2023-04-06T03:06:20;0.00;98.80
9482;DHT22;4779;48.062;11.672;2023-04-06T03:08:47;0.10;98.90
9482;DHT22;4779;48.062;11.672;2023-04-06T03:11:14;0.10;99.10
9482;DHT22;4779;48.062;11.672;2023-04-06T03:13:42;0.10;98.90
9482;DHT22;4779;48.062;11.672;2023-04-06T03:16:09;0.10;98.80
9482;DHT22;4779;48.062;11.672;2023-04-06T03:18:36;0.10;98.70
9482;DHT22;4779;48.062;11.672;2023-04-06T03:21:03;0.10;98.50
9482;DHT22;4779;48.062;11.672;2023-04-06T03:23:30;0.10;98.40
9482;DHT22;4779;48.062;11.672;2023-04-06T03:25:57;0.10;98.70
9482;DHT22;4779;48.062;11.672;2023-04-06T03:28:24;0.10;98.90
9482;DHT22;4779;48.062;11.672;2023-04-06T03:30:53;0.10;99.30
9482;DHT22;4779;48.062;11.672;2023-04-06T03:33:20;0.10;99.30
9482;DHT22;4779;48.062;11.672;2023-04-06T03:35:47;0.00;99.20
9482;DHT22;4779;48.062;11.672;2023-04-06T03:38:14;0.10;99.70
9482;DHT22;4779;48.062;11.672;2023-04-06T03:40:41;0.10;99.50
9482;DHT22;4779;48.062;11.672;2023-04-06T03:43:08;0.00;99.70
9482;DHT22;4779;48.062;11.672;2023-04-06T03:45:35;0.00;99.80
9482;DHT22;4779;48.062;11.672;2023-04-06T03:48:04;0.00;99.30
9482;DHT22;4779;48.062;11.672;2023-04-06T03:50:31;0.00;99.20
9482;DHT22;4779;48.062;11.672;2023-04-06T03:52:58;0.00;99.30
9482;DHT22;4779;48.062;11.672;2023-04-06T03:55:27;-0.10;99.70
9482;DHT22;4779;48.062;11.672;2023-04-06T03:57:54;-0.10;99.60
9482;DHT22;4779;48.062;11.672;2023-04-06T04:00:21;-0.20;99.30
9482;DHT22;4779;48.062;11.672;2023-04-06T04:02:48;-0.40;99.90
9482;DHT22;4779;48.062;11.672;2023-04-06T04:05:16;-0.40;99.90
9482;DHT22;4779;48.062;11.672;2023-04-06T04:07:43;-0.50;99.90
9482;DHT22;4779;48.062;11.672;2023-04-06T04:10:10;-0.40;99.90
9482;DHT22;4779;48.062;11.672;2023-04-06T04:12:37;-0.40;99.90
9482;DHT22;4779;48.062;11.672;2023-04-06T04:15:05;-0.50;99.90
9482;DHT22;4779;48.062;11.672;2023-04-06T04:17:32;-0.60;99.90
9482;DHT22;4779;48.062;11.672;2023-04-06T04:19:59;-0.50;99.90
9482;DHT22;4779;48.062;11.672;2023-04-06T04:22:28;-0.50;99.90
9482;DHT22;4779;48.062;11.672;2023-04-06T04:24:55;-0.40;99.90
9482;DHT22;4779;48.062;11.672;2023-04-06T04:27:22;-0.30;99.90
9482;DHT22;4779;48.062;11.672;2023-04-06T04:29:49;-0.40;99.90
9482;DHT22;4779;48.062;11.672;2023-04-06T04:32:16;-0.40;99.90
9482;DHT22;4779;48.062;11.672;2023-04-06T04:34:43;-0.40;99.90
9482;DHT22;4779;48.062;11.672;2023-04-06T04:37:10;-0.40;99.90
9482;DHT22;4779;48.062;11.672;2023-04-06T04:39:38;-0.30;99.90
9482;DHT22;4779;48.062;11.672;2023-04-06T04:42:05;-0.30;99.90
9482;DHT22;4779;48.062;11.672;2023-04-06T04:44:33;-0.40;99.90
9482;DHT22;4779;48.062;11.672;2023-04-06T04:47:00;-0.40;99.90
9482;DHT22;4779;48.062;11.672;2023-04-06T04:49:27;-0.40;99.90
9482;DHT22;4779;48.062;11.672;2023-04-06T04:51:54;-0.40;99.90
9482;DHT22;4779;48.062;11.672;2023-04-06T04:54:21;-0.30;99.90
9482;DHT22;4779;48.062;11.672;2023-04-06T04:56:49;-0.30;99.90
9482;DHT22;4779;48.062;11.672;2023-04-06T04:59:17;-0.30;99.90
9482;DHT22;4779;48.062;11.672;2023-04-06T05:01:44;-0.30;99.90
9482;DHT22;4779;48.062;11.672;2023-04-06T05:04:11;-0.20;99.90
9482;DHT22;4779;48.062;11.672;2023-04-06T05:06:38;-0.20;99.90
9482;DHT22;4779;48.062;11.672;2023-04-06T05:09:05;-0.20;99.90
9482;DHT22;4779;48.062;11.672;2023-04-06T05:11:32;-0.30;99.90
9482;DHT22;4779;48.062;11.672;2023-04-06T05:14:00;-0.30;99.90
9482;DHT22;4779;48.062;11.672;2023-04-06T05:16:27;-0.20;99.90
9482;DHT22;4779;48.062;11.672;2023-04-06T05:18:54;-0.10;99.90
9482;DHT22;4779;48.062;11.672;2023-04-06T05:21:22;-0.10;99.90
9482;DHT22;4779;48.062;11.672;2023-04-06T05:23:49;-0.10;99.90
9482;DHT22;4779;48.062;11.672;2023-04-06T05:26:16;0.00;99.90
9482;DHT22;4779;48.062;11.672;2023-04-06T05:28:43;0.00;99.90
9482;DHT22;4779;48.062;11.672;2023-04-06T05:31:12;0.00;99.90
9482;DHT22;4779;48.062;11.672;2023-04-06T05:33:40;0.00;99.90
9482;DHT22;4779;48.062;11.672;2023-04-06T05:36:07;0.10;99.90
9482;DHT22;4779;48.062;11.672;2023-04-06T05:38:34;0.20;99.90
9482;DHT22;4779;48.062;11.672;2023-04-06T05:41:01;0.30;99.90
9482;DHT22;4779;48.062;11.672;2023-04-06T05:43:28;0.30;99.90
9482;DHT22;4779;48.062;11.672;2023-04-06T05:45:55;0.30;99.90
9482;DHT22;4779;48.062;11.672;2023-04-06T05:48:24;0.50;99.90
9482;DHT22;4779;48.062;11.672;2023-04-06T05:50:51;0.60;99.90
9482;DHT22;4779;48.062;11.672;2023-04-06T05:53:18;0.60;99.90
9482;DHT22;4779;48.062;11.672;2023-04-06T05:55:46;0.70;99.90
9482;DHT22;4779;48.062;11.672;2023-04-06T05:58:13;0.60;99.90
9482;DHT22;4779;48.062;11.672;2023-04-06T06:00:40;0.60;99.90
9482;DHT22;4779;48.062;11.672;2023-04-06T06:03:08;0.60;99.90
9482;DHT22;4779;48.062;11.672;2023-04-06T06:05:36;0.70;99.90
9482;DHT22;4779;48.062;11.672;2023-04-06T06:08:03;0.80;99.90
9482;DHT22;4779;48.062;11.672;2023-04-06T06:10:30;0.90;99.90
9482;DHT22;4779;48.062;11.672;2023-04-06T06:12:57;1.00;99.90
9482;DHT22;4779;48.062;11.672;2023-04-06T06:15:24;1.10;99.90
9482;DHT22;4779;48.062;11.672;2023-04-06T06:17:51;1.30;99.90
9482;DHT22;4779;48.062;11.672;2023-04-06T06:20:18;1.60;99.90
9482;DHT22;4779;48.062;11.672;2023-04-06T06:22:47;2.00;99.30
9482;DHT22;4779;48.062;11.672;2023-04-06T06:25:13;2.30;98.20
9482;DHT22;4779;48.062;11.672;2023-04-06T06:27:41;2.50;98.20
9482;DHT22;4779;48.062;11.672;2023-04-06T06:30:09;2.70;97.90
9482;DHT22;4779;48.062;11.672;2023-04-06T06:32:36;2.90;97.80
9482;DHT22;4779;48.062;11.672;2023-04-06T06:35:03;3.10;97.60
9482;DHT22;4779;48.062;11.672;2023-04-06T06:37:31;3.20;97.30
9482;DHT22;4779;48.062;11.672;2023-04-06T06:39:59;3.30;97.70
9482;DHT22;4779;48.062;11.672;2023-04-06T06:42:26;3.50;97.70
9482;DHT22;4779;48.062;11.672;2023-04-06T06:44:54;3.60;97.60
9482;DHT22;4779;48.062;11.672;2023-04-06T06:47:21;3.80;97.50
9482;DHT22;4779;48.062;11.672;2023-04-06T06:49:48;3.80;97.50
9482;DHT22;4779;48.062;11.672;2023-04-06T06:52:15;3.80;97.40
9482;DHT22;4779;48.062;11.672;2023-04-06T06:54:42;4.00;97.20
9482;DHT22;4779;48.062;11.672;2023-04-06T06:57:10;4.20;97.40
9482;DHT22;4779;48.062;11.672;2023-04-06T06:59:37;4.30;96.70
9482;DHT22;4779;48.062;11.672;2023-04-06T07:02:05;4.50;96.80
9482;DHT22;4779;48.062;11.672;2023-04-06T07:04:32;4.60;96.40
9482;DHT22;4779;48.062;11.672;2023-04-06T07:06:59;4.70;96.10
9482;DHT22;4779;48.062;11.672;2023-04-06T07:09:26;4.70;96.10
9482;DHT22;4779;48.062;11.672;2023-04-06T07:11:53;4.80;96.10
9482;DHT22;4779;48.062;11.672;2023-04-06T07:14:23;5.00;98.10
9482;DHT22;4779;48.062;11.672;2023-04-06T07:16:50;5.00;96.30
9482;DHT22;4779;48.062;11.672;2023-04-06T07:19:17;5.10;95.80
9482;DHT22;4779;48.062;11.672;2023-04-06T07:21:44;5.20;95.80
9482;DHT22;4779;48.062;11.672;2023-04-06T07:24:11;5.40;95.70
9482;DHT22;4779;48.062;11.672;2023-04-06T07:26:38;5.10;93.90
9482;DHT22;4779;48.062;11.672;2023-04-06T07:29:05;4.90;94.70
9482;DHT22;4779;48.062;11.672;2023-04-06T07:31:34;4.80;94.60
9482;DHT22;4779;48.062;11.672;2023-04-06T07:34:01;4.60;94.60
9482;DHT22;4779;48.062;11.672;2023-04-06T07:36:28;4.50;94.50
9482;DHT22;4779;48.062;11.672;2023-04-06T07:38:55;4.60;94.60
9482;DHT22;4779;48.062;11.672;2023-04-06T07:41:22;4.60;93.40
9482;DHT22;4779;48.062;11.672;2023-04-06T07:43:49;4.60;92.10
9482;DHT22;4779;48.062;11.672;2023-04-06T07:46:16;4.60;92.00
9482;DHT22;4779;48.062;11.672;2023-04-06T07:48:45;4.60;91.20
9482;DHT22;4779;48.062;11.672;2023-04-06T07:51:12;4.70;91.30
9482;DHT22;4779;48.062;11.672;2023-04-06T07:53:40;4.90;92.40
9482;DHT22;4779;48.062;11.672;2023-04-06T07:56:07;5.10;92.30
9482;DHT22;4779;48.062;11.672;2023-04-06T07:58:34;5.20;91.40
9482;DHT22;4779;48.062;11.672;2023-04-06T08:01:01;5.50;93.70
9482;DHT22;4779;48.062;11.672;2023-04-06T08:03:28;5.70;93.80
9482;DHT22;4779;48.062;11.672;2023-04-06T08:05:57;5.90;93.00
9482;DHT22;4779;48.062;11.672;2023-04-06T08:08:24;5.70;92.40
9482;DHT22;4779;48.062;11.672;2023-04-06T08:10:51;6.00;91.50
9482;DHT22;4779;48.062;11.672;2023-04-06T08:13:18;6.00;89.10
9482;DHT22;4779;48.062;11.672;2023-04-06T08:15:45;6.30;90.60
9482;DHT22;4779;48.062;11.672;2023-04-06T08:18:12;6.40;86.20
9482;DHT22;4779;48.062;11.672;2023-04-06T08:20:39;6.40;84.40
9482;DHT22;4779;48.062;11.672;2023-04-06T08:23:08;6.50;84.30
9482;DHT22;4779;48.062;11.672;2023-04-06T08:25:36;6.40;82.70
9482;DHT22;4779;48.062;11.672;2023-04-06T08:28:04;6.50;84.90
9482;DHT22;4779;48.062;11.672;2023-04-06T08:30:31;6.70;90.70
9482;DHT22;4779;48.062;11.672;2023-04-06T08:32:58;6.80;84.20
9482;DHT22;4779;48.062;11.672;2023-04-06T08:35:26;7.00;84.30
9482;DHT22;4779;48.062;11.672;2023-04-06T08:37:53;7.10;83.00
9482;DHT22;4779;48.062;11.672;2023-04-06T08:40:21;7.20;80.50
9482;DHT22;4779;48.062;11.672;2023-04-06T08:42:50;7.20;75.40
9482;DHT22;4779;48.062;11.672;2023-04-06T08:45:18;7.20;77.00
9482;DHT22;4779;48.062;11.672;2023-04-06T08:47:47;7.40;78.00
9482;DHT22;4779;48.062;11.672;2023-04-06T08:50:16;7.60;76.60
9482;DHT22;4779;48.062;11.672;2023-04-06T08:52:44;7.80;78.20
9482;DHT22;4779;48.062;11.672;2023-04-06T08:55:13;8.00;74.80
9482;DHT22;4779;48.062;11.672;2023-04-06T08:57:41;8.10;74.60
9482;DHT22;4779;48.062;11.672;2023-04-06T09:00:10;8.30;73.60
9482;DHT22;4779;48.062;11.672;2023-04-06T09:02:39;8.40;74.90
9482;DHT22;4779;48.062;11.672;2023-04-06T09:05:08;8.60;73.60
9482;DHT22;4779;48.062;11.672;2023-04-06T09:07:35;8.70;74.50
9482;DHT22;4779;48.062;11.672;2023-04-06T09:10:03;8.80;69.80
9482;DHT22;4779;48.062;11.672;2023-04-06T09:12:31;8.90;71.50
9482;DHT22;4779;48.062;11.672;2023-04-06T09:15:00;9.40;96.60
9482;DHT22;4779;48.062;11.672;2023-04-06T09:17:29;9.60;72.50
9482;DHT22;4779;48.062;11.672;2023-04-06T09:19:58;9.90;71.30
9482;DHT22;4779;48.062;11.672;2023-04-06T09:22:34;10.20;69.80
9482;DHT22;4779;48.062;11.672;2023-04-06T09:25:01;10.50;70.10
9482;DHT22;4779;48.062;11.672;2023-04-06T09:27:32;10.70;69.20
9482;DHT22;4779;48.062;11.672;2023-04-06T09:30:08;10.90;68.70
9482;DHT22;4779;48.062;11.672;2023-04-06T09:32:46;11.00;64.20
9482;DHT22;4779;48.062;11.672;2023-04-06T09:35:14;11.00;64.30
9482;DHT22;4779;48.062;11.672;2023-04-06T09:37:41;11.10;66.90
9482;DHT22;4779;48.062;11.672;2023-04-06T09:40:09;11.20;65.50
9482;DHT22;4779;48.062;11.672;2023-04-06T09:42:36;11.50;65.10
9482;DHT22;4779;48.062;11.672;2023-04-06T09:45:04;11.70;62.90
9482;DHT22;4779;48.062;11.672;2023-04-06T09:47:36;12.00;61.50
9482;DHT22;4779;48.062;11.672;2023-04-06T09:50:03;12.00;61.30
9482;DHT22;4779;48.062;11.672;2023-04-06T09:52:33;11.70;61.80
9482;DHT22;4779;48.062;11.672;2023-04-06T09:55:03;11.40;64.10
9482;DHT22;4779;48.062;11.672;2023-04-06T09:57:35;11.40;60.70
9482;DHT22;4779;48.062;11.672;2023-04-06T10:00:04;11.20;58.60
9482;DHT22;4779;48.062;11.672;2023-04-06T10:02:41;11.50;61.50
9482;DHT22;4779;48.062;11.672;2023-04-06T10:05:16;11.20;60.70
9482;DHT22;4779;48.062;11.672;2023-04-06T10:07:47;11.00;61.10
9482;DHT22;4779;48.062;11.672;2023-04-06T10:10:16;10.90;62.80
9482;DHT22;4779;48.062;11.672;2023-04-06T10:12:44;10.70;65.50
9482;DHT22;4779;48.062;11.672;2023-04-06T10:15:12;10.40;62.30
9482;DHT22;4779;48.062;11.672;2023-04-06T10:17:40;10.20;65.30
9482;DHT22;4779;48.062;11.672;2023-04-06T10:20:10;10.00;64.40
9482;DHT22;4779;48.062;11.672;2023-04-06T10:22:43;9.80;67.50
9482;DHT22;4779;48.062;11.672;2023-04-06T10:25:16;9.70;66.00
9482;DHT22;4779;48.062;11.672;2023-04-06T10:27:43;9.60;66.80
9482;DHT22;4779;48.062;11.672;2023-04-06T10:30:10;9.50;67.20
9482;DHT22;4779;48.062;11.672;2023-04-06T10:32:40;9.50;64.30
9482;DHT22;4779;48.062;11.672;2023-04-06T10:35:12;9.50;67.30
9482;DHT22;4779;48.062;11.672;2023-04-06T10:37:51;9.60;68.00
9482;DHT22;4779;48.062;11.672;2023-04-06T10:40:22;9.80;69.60
9482;DHT22;4779;48.062;11.672;2023-04-06T10:42:50;10.50;67.60
9482;DHT22;4779;48.062;11.672;2023-04-06T10:45:22;11.20;65.00
9482;DHT22;4779;48.062;11.672;2023-04-06T10:47:52;11.80;60.90
9482;DHT22;4779;48.062;11.672;2023-04-06T10:50:20;12.50;60.00
9482;DHT22;4779;48.062;11.672;2023-04-06T10:52:47;13.10;62.00
9482;DHT22;4779;48.062;11.672;2023-04-06T10:55:26;13.70;60.70
9482;DHT22;4779;48.062;11.672;2023-04-06T10:57:53;13.60;55.00
9482;DHT22;4779;48.062;11.672;2023-04-06T11:00:20;13.80;56.40
9482;DHT22;4779;48.062;11.672;2023-04-06T11:02:47;14.20;58.70
9482;DHT22;4779;48.062;11.672;2023-04-06T11:05:16;14.80;58.40
9482;DHT22;4779;48.062;11.672;2023-04-06T11:07:44;15.10;57.40
9482;DHT22;4779;48.062;11.672;2023-04-06T11:10:11;15.20;55.50
9482;DHT22;4779;48.062;11.672;2023-04-06T11:12:38;14.70;53.20
9482;DHT22;4779;48.062;11.672;2023-04-06T11:15:06;14.20;54.20
9482;DHT22;4779;48.062;11.672;2023-04-06T11:17:34;13.80;53.10
9482;DHT22;4779;48.062;11.672;2023-04-06T11:20:03;12.90;52.30
9482;DHT22;4779;48.062;11.672;2023-04-06T11:22:32;12.70;55.20
9482;DHT22;4779;48.062;11.672;2023-04-06T11:25:05;12.50;54.90
9482;DHT22;4779;48.062;11.672;2023-04-06T11:27:33;12.30;57.60
9482;DHT22;4779;48.062;11.672;2023-04-06T11:30:00;12.10;56.80
9482;DHT22;4779;48.062;11.672;2023-04-06T11:32:27;12.00;56.20
9482;DHT22;4779;48.062;11.672;2023-04-06T11:34:57;11.80;57.80
9482;DHT22;4779;48.062;11.672;2023-04-06T11:37:26;11.70;57.90
9482;DHT22;4779;48.062;11.672;2023-04-06T11:39:55;11.40;59.30
9482;DHT22;4779;48.062;11.672;2023-04-06T11:42:23;11.10;59.90
9482;DHT22;4779;48.062;11.672;2023-04-06T11:44:51;11.00;59.30
9482;DHT22;4779;48.062;11.672;2023-04-06T11:47:19;10.90;58.00
9482;DHT22;4779;48.062;11.672;2023-04-06T11:49:48;10.90;58.90
9482;DHT22;4779;48.062;11.672;2023-04-06T11:52:17;10.90;59.20
9482;DHT22;4779;48.062;11.672;2023-04-06T11:54:44;10.90;58.80
9482;DHT22;4779;48.062;11.672;2023-04-06T11:57:13;10.80;59.00
9482;DHT22;4779;48.062;11.672;2023-04-06T11:59:40;10.80;59.90
9482;DHT22;4779;48.062;11.672;2023-04-06T12:02:08;10.70;57.00
9482;DHT22;4779;48.062;11.672;2023-04-06T12:04:35;10.50;58.40
9482;DHT22;4779;48.062;11.672;2023-04-06T12:07:03;10.50;58.20
9482;DHT22;4779;48.062;11.672;2023-04-06T12:09:31;10.30;57.30
9482;DHT22;4779;48.062;11.672;2023-04-06T12:11:58;10.50;59.10
9482;DHT22;4779;48.062;11.672;2023-04-06T12:14:27;10.50;59.20
9482;DHT22;4779;48.062;11.672;2023-04-06T12:16:56;10.80;61.50
9482;DHT22;4779;48.062;11.672;2023-04-06T12:19:23;10.90;57.70
9482;DHT22;4779;48.062;11.672;2023-04-06T12:21:51;10.90;61.20
9482;DHT22;4779;48.062;11.672;2023-04-06T12:24:19;10.80;59.90
9482;DHT22;4779;48.062;11.672;2023-04-06T12:26:46;11.00;59.00
9482;DHT22;4779;48.062;11.672;2023-04-06T12:29:13;11.60;58.90
9482;DHT22;4779;48.062;11.672;2023-04-06T12:31:42;11.90;57.80
9482;DHT22;4779;48.062;11.672;2023-04-06T12:34:10;11.60;55.90
9482;DHT22;4779;48.062;11.672;2023-04-06T12:36:38;11.30;59.20
9482;DHT22;4779;48.062;11.672;2023-04-06T12:39:05;11.00;57.40
9482;DHT22;4779;48.062;11.672;2023-04-06T12:41:32;10.80;57.10
9482;DHT22;4779;48.062;11.672;2023-04-06T12:43:59;10.80;58.40
9482;DHT22;4779;48.062;11.672;2023-04-06T12:46:27;10.80;57.10
9482;DHT22;4779;48.062;11.672;2023-04-06T12:48:57;10.90;57.90
9482;DHT22;4779;48.062;11.672;2023-04-06T12:51:24;11.00;56.40
9482;DHT22;4779;48.062;11.672;2023-04-06T12:53:52;11.40;59.00
9482;DHT22;4779;48.062;11.672;2023-04-06T12:56:19;12.20;59.40
9482;DHT22;4779;48.062;11.672;2023-04-06T12:58:48;13.00;58.10
9482;DHT22;4779;48.062;11.672;2023-04-06T13:01:15;13.40;56.60
9482;DHT22;4779;48.062;11.672;2023-04-06T13:03:42;13.40;56.20
9482;DHT22;4779;48.062;11.672;2023-04-06T13:06:11;13.20;55.50
9482;DHT22;4779;48.062;11.672;2023-04-06T13:08:39;12.90;56.30
9482;DHT22;4779;48.062;11.672;2023-04-06T13:11:06;13.00;54.60
9482;DHT22;4779;48.062;11.672;2023-04-06T13:13:34;12.70;53.60
9482;DHT22;4779;48.062;11.672;2023-04-06T13:16:03;12.60;58.70
9482;DHT22;4779;48.062;11.672;2023-04-06T13:18:31;13.20;54.50
9482;DHT22;4779;48.062;11.672;2023-04-06T13:20:58;13.80;56.00
9482;DHT22;4779;48.062;11.672;2023-04-06T13:23:27;13.90;51.00
9482;DHT22;4779;48.062;11.672;2023-04-06T13:25:58;13.60;52.70
9482;DHT22;4779;48.062;11.672;2023-04-06T13:28:26;13.10;54.70
9482;DHT22;4779;48.062;11.672;2023-04-06T13:30:53;12.70;54.60
9482;DHT22;4779;48.062;11.672;2023-04-06T13:33:21;12.40;52.50
9482;DHT22;4779;48.062;11.672;2023-04-06T13:35:48;12.30;54.70
9482;DHT22;4779;48.062;11.672;2023-04-06T13:38:15;12.20;54.20
9482;DHT22;4779;48.062;11.672;2023-04-06T13:40:44;11.90;53.80
9482;DHT22;4779;48.062;11.672;2023-04-06T13:43:11;11.90;57.20
9482;DHT22;4779;48.062;11.672;2023-04-06T13:45:38;11.90;54.80
9482;DHT22;4779;48.062;11.672;2023-04-06T13:48:06;12.50;59.70
9482;DHT22;4779;48.062;11.672;2023-04-06T13:50:33;13.10;55.20
9482;DHT22;4779;48.062;11.672;2023-04-06T13:53:00;13.90;58.10
9482;DHT22;4779;48.062;11.672;2023-04-06T13:55:27;13.90;52.60
9482;DHT22;4779;48.062;11.672;2023-04-06T13:57:56;13.30;52.20
9482;DHT22;4779;48.062;11.672;2023-04-06T14:00:24;12.90;52.80
9482;DHT22;4779;48.062;11.672;2023-04-06T14:02:53;12.60;52.20
9482;DHT22;4779;48.062;11.672;2023-04-06T14:05:19;12.50;52.90
9482;DHT22;4779;48.062;11.672;2023-04-06T14:07:46;13.00;55.10
9482;DHT22;4779;48.062;11.672;2023-04-06T14:10:13;13.40;52.50
9482;DHT22;4779;48.062;11.672;2023-04-06T14:12:41;13.70;53.40
9482;DHT22;4779;48.062;11.672;2023-04-06T14:15:11;13.70;52.40
9482;DHT22;4779;48.062;11.672;2023-04-06T14:17:39;13.60;52.00
9482;DHT22;4779;48.062;11.672;2023-04-06T14:20:06;13.90;53.30
9482;DHT22;4779;48.062;11.672;2023-04-06T14:22:39;13.50;51.80
9482;DHT22;4779;48.062;11.672;2023-04-06T14:25:07;13.20;52.30
9482;DHT22;4779;48.062;11.672;2023-04-06T14:27:34;12.90;52.30
9482;DHT22;4779;48.062;11.672;2023-04-06T14:30:01;12.50;52.80
9482;DHT22;4779;48.062;11.672;2023-04-06T14:32:30;12.10;54.40
9482;DHT22;4779;48.062;11.672;2023-04-06T14:34:57;11.90;56.30
9482;DHT22;4779;48.062;11.672;2023-04-06T14:37:27;11.90;56.70
9482;DHT22;4779;48.062;11.672;2023-04-06T14:39:54;11.80;55.60
9482;DHT22;4779;48.062;11.672;2023-04-06T14:42:21;11.60;55.30
9482;DHT22;4779;48.062;11.672;2023-04-06T14:44:48;11.40;55.20
9482;DHT22;4779;48.062;11.672;2023-04-06T14:47:16;11.50;57.30
9482;DHT22;4779;48.062;11.672;2023-04-06T14:49:47;11.40;54.00
9482;DHT22;4779;48.062;11.672;2023-04-06T14:52:14;11.40;54.60
9482;DHT22;4779;48.062;11.672;2023-04-06T14:54:41;11.30;57.30
9482;DHT22;4779;48.062;11.672;2023-04-06T14:57:07;11.20;56.10
9482;DHT22;4779;48.062;11.672;2023-04-06T14:59:34;11.10;55.50
9482;DHT22;4779;48.062;11.672;2023-04-06T15:02:02;11.10;56.20
9482;DHT22;4779;48.062;11.672;2023-04-06T15:04:29;11.00;57.00
9482;DHT22;4779;48.062;11.672;2023-04-06T15:06:57;11.10;57.20
9482;DHT22;4779;48.062;11.672;2023-04-06T15:09:24;11.20;56.30
9482;DHT22;4779;48.062;11.672;2023-04-06T15:11:51;11.50;54.80
9482;DHT22;4779;48.062;11.672;2023-04-06T15:14:18;11.90;57.10
9482;DHT22;4779;48.062;11.672;2023-04-06T15:16:45;12.40;57.20
9482;DHT22;4779;48.062;11.672;2023-04-06T15:19:12;12.60;54.70
9482;DHT22;4779;48.062;11.672;2023-04-06T15:21:39;12.50;55.80
9482;DHT22;4779;48.062;11.672;2023-04-06T15:24:08;12.20;54.00
9482;DHT22;4779;48.062;11.672;2023-04-06T15:26:35;11.90;53.50
9482;DHT22;4779;48.062;11.672;2023-04-06T15:29:03;11.80;56.40
9482;DHT22;4779;48.062;11.672;2023-04-06T15:31:30;11.70;56.90
9482;DHT22;4779;48.062;11.672;2023-04-06T15:33:58;11.50;56.00
9482;DHT22;4779;48.062;11.672;2023-04-06T15:36:27;11.30;58.50
9482;DHT22;4779;48.062;11.672;2023-04-06T15:38:55;11.10;57.10
9482;DHT22;4779;48.062;11.672;2023-04-06T15:41:24;11.00;57.30
9482;DHT22;4779;48.062;11.672;2023-04-06T15:43:52;10.90;57.30
9482;DHT22;4779;48.062;11.672;2023-04-06T15:46:19;10.80;56.40
9482;DHT22;4779;48.062;11.672;2023-04-06T15:48:46;10.80;56.30
9482;DHT22;4779;48.062;11.672;2023-04-06T15:51:13;10.70;56.00
9482;DHT22;4779;48.062;11.672;2023-04-06T15:53:41;10.70;57.00
9482;DHT22;4779;48.062;11.672;2023-04-06T15:56:08;10.70;57.40
9482;DHT22;4779;48.062;11.672;2023-04-06T15:58:36;10.70;56.40
9482;DHT22;4779;48.062;11.672;2023-04-06T16:01:11;10.70;56.80
9482;DHT22;4779;48.062;11.672;2023-04-06T16:03:38;10.80;57.00
9482;DHT22;4779;48.062;11.672;2023-04-06T16:06:05;10.90;57.20
9482;DHT22;4779;48.062;11.672;2023-04-06T16:08:32;11.00;55.80
9482;DHT22;4779;48.062;11.672;2023-04-06T16:11:00;11.10;56.10
9482;DHT22;4779;48.062;11.672;2023-04-06T16:13:27;11.10;55.50
9482;DHT22;4779;48.062;11.672;2023-04-06T16:15:55;11.10;54.70
9482;DHT22;4779;48.062;11.672;2023-04-06T16:18:22;11.10;54.10
9482;DHT22;4779;48.062;11.672;2023-04-06T16:20:49;11.10;56.70
9482;DHT22;4779;48.062;11.672;2023-04-06T16:23:16;11.10;54.50
9482;DHT22;4779;48.062;11.672;2023-04-06T16:25:42;11.00;55.10
9482;DHT22;4779;48.062;11.672;2023-04-06T16:28:10;10.90;57.10